Portada
METAR-TAF:

METAR-TAF

Aeroports :

Aeroport de Madrid-Barajas

Madrid, Espanya

latitud: 40-27N, longitud: 003-33W, altitud: 609 m

Observació

L'informe es va fer fa 32 minuts, a les 04:30 UTC
Vent 2 kt amb direcció variable
Temperatura 0°C
Humitat 100%
Pressió 1017 hPa
Visibilitat 10 km o més
sense núvols per sota de 1500 mi sense presència de cumulonimbus.

METAR: LEMD 140430Z VRB02KT CAVOK M00/M00 Q1017 NOSIG

Hora: 06:02 (05:02 UTC)

Pronòstic

L'informe es va fer fa 6 hores i 2 minuts, a les 23:00 UTC
Pronòstic vàlid del 14 a les 00 UTC al 15 a les 06 UTC
Vent 6 kt del Nord-Oest
Visibilitat 10 km o més
Cel ennuvolat a una alçada de 1800 ft

TAF: LEMD 132300Z 1400/1506 32006KT 9999 BKN018 TX10/1415Z TN03/1408Z

Observacions i pronòstics meteorològics de més de 4000 aeroports (METAR i TAF).

Les estacions disponibles són els punts grocs i vermells al mapa.

Posi el ratolí al punt desitjat per veure el nom de l'estació.

Feu clic per veure les observacions i els pronòstics meteorològics.

Per canviar el mapa: feu clic els botons verds amb una creu de color negre per apropar; al botó verd amb un guió per allunyar la imatge; o en les fletxes verdes per a mapes adjacents.


METAR-TAF: